Time;durP1;ratioP1;P1;durP2;ratioP2;P2;SDS_P1;SDS_P2;PMS_P1;PMS_P2;Temp;Humidity;BMP_temperature;BMP_pressure;BME280_temperature;BME280_humidity;BME280_pressure;Samples;Min_cycle;Max_cycle;Signal;HPM_P1;HPM_P2
2021/07/27 00:01:33;;;;;;;4.15;3.58;;;26.50;53.10;;;;;;5052466;28;20154;-59
2021/07/27 00:03:58;;;;;;;3.92;3.53;;;26.50;53.10;;;;;;5053078;28;20115;-62
2021/07/27 00:06:24;;;;;;;4.13;3.28;;;26.50;53.10;;;;;;5051058;28;20025;-62
2021/07/27 00:08:50;;;;;;;4.35;3.58;;;26.50;53.10;;;;;;5052923;28;20203;-60
2021/07/27 00:11:15;;;;;;;4.20;3.50;;;26.50;53.30;;;;;;5049366;28;20091;-62
2021/07/27 00:13:41;;;;;;;4.28;3.85;;;26.50;53.20;;;;;;5049583;28;20131;-61
2021/07/27 00:16:07;;;;;;;4.07;3.63;;;26.50;53.20;;;;;;5050720;28;20344;-59
2021/07/27 00:18:33;;;;;;;4.57;3.25;;;26.50;53.30;;;;;;5051059;28;20033;-60
2021/07/27 00:21:04;;;;;;;4.78;3.60;;;26.40;53.20;;;;;;5034806;28;20113;-60
2021/07/27 00:23:35;;;;;;;4.57;3.63;;;26.40;53.30;;;;;;5052557;28;20037;-61
2021/07/27 00:26:05;;;;;;;4.78;4.00;;;26.40;53.30;;;;;;5053056;28;20029;-60
2021/07/27 00:28:31;;;;;;;4.82;4.13;;;26.40;53.30;;;;;;5048614;28;20056;-60
2021/07/27 00:30:56;;;;;;;5.13;3.85;;;26.40;53.40;;;;;;5035008;28;20425;-60
2021/07/27 00:33:22;;;;;;;5.35;4.07;;;26.40;53.30;;;;;;5048728;28;20064;-58
2021/07/27 00:35:48;;;;;;;4.25;3.85;;;26.40;53.40;;;;;;5054112;28;20048;-59
2021/07/27 00:38:23;;;;;;;4.55;3.95;;;26.40;53.40;;;;;;5050744;28;20028;-62
2021/07/27 00:40:49;;;;;;;4.50;3.83;;;26.40;53.40;;;;;;5049833;28;20029;-59
2021/07/27 00:43:17;;;;;;;4.38;3.78;;;26.40;53.40;;;;;;5051660;28;20067;-58
2021/07/27 00:45:43;;;;;;;5.25;4.50;;;26.40;53.40;;;;;;5050275;28;20443;-60
2021/07/27 00:48:09;;;;;;;5.35;4.45;;;26.40;53.50;;;;;;5030900;28;20044;-60
2021/07/27 00:50:36;;;;;;;4.95;4.38;;;26.40;53.50;;;;;;5050408;28;20044;-61
2021/07/27 00:53:03;;;;;;;6.03;4.35;;;26.40;53.50;;;;;;5032732;28;20021;-60
2021/07/27 00:55:30;;;;;;;4.78;4.03;;;26.40;53.50;;;;;;5052186;28;20112;-61
2021/07/27 00:57:57;;;;;;;6.45;4.45;;;26.40;53.50;;;;;;5051294;28;20016;-61
2021/07/27 01:00:24;;;;;;;4.72;4.22;;;26.40;53.50;;;;;;5051592;28;20079;-59
2021/07/27 01:02:50;;;;;;;4.97;4.10;;;26.30;53.50;;;;;;5051857;28;20044;-61
2021/07/27 01:05:17;;;;;;;5.68;4.50;;;26.30;53.50;;;;;;5048804;28;20055;-59
2021/07/27 01:07:43;;;;;;;5.00;4.20;;;26.30;53.50;;;;;;5050470;28;20118;-60
2021/07/27 01:10:13;;;;;;;5.22;4.35;;;26.30;54.10;;;;;;5047899;28;20099;-60
2021/07/27 01:12:39;;;;;;;5.35;4.85;;;26.30;53.50;;;;;;5031867;28;20033;-60
2021/07/27 01:15:06;;;;;;;5.00;4.40;;;26.30;53.50;;;;;;5051792;28;20115;-61
2021/07/27 01:17:33;;;;;;;4.75;3.88;;;26.30;53.50;;;;;;5051990;28;20025;-61
2021/07/27 01:44:27;;;;;;;5.38;4.68;;;26.20;53.60;;;;;;5050452;28;20425;-62
2021/07/27 01:46:53;;;;;;;6.28;5.35;;;26.20;53.60;;;;;;5051031;28;20120;-58
2021/07/27 01:49:18;;;;;;;5.25;4.68;;;26.20;53.60;;;;;;5050936;28;20029;-58
2021/07/27 01:51:46;;;;;;;6.03;5.13;;;26.20;53.60;;;;;;5049009;28;20036;-61
2021/07/27 01:54:15;;;;;;;5.50;4.90;;;26.20;53.50;;;;;;5049218;28;20051;-60
2021/07/27 01:56:46;;;;;;;7.10;6.22;;;26.20;53.50;;;;;;5050901;28;20029;-60
2021/07/27 01:59:12;;;;;;;6.35;5.63;;;26.20;53.50;;;;;;5039904;28;20061;-58
2021/07/27 02:01:41;;;;;;;5.80;5.15;;;26.20;53.50;;;;;;5033361;28;20098;-60
2021/07/27 02:04:06;;;;;;;6.90;5.53;;;26.20;53.50;;;;;;5048254;28;20029;-61
2021/07/27 02:06:32;;;;;;;6.00;5.28;;;26.20;53.50;;;;;;5047785;28;20036;-56
2021/07/27 02:09:04;;;;;;;6.50;5.80;;;26.20;53.50;;;;;;5030922;28;20044;-60
2021/07/27 02:11:37;;;;;;;7.50;5.50;;;26.20;53.40;;;;;;5048605;28;20076;-61
2021/07/27 02:14:03;;;;;;;5.88;4.95;;;26.20;53.40;;;;;;5047597;28;20098;-61
2021/07/27 02:16:29;;;;;;;5.93;5.30;;;26.20;53.40;;;;;;5051292;28;20457;-60
2021/07/27 02:19:01;;;;;;;6.47;5.57;;;26.20;53.40;;;;;;5050679;28;20028;-60
2021/07/27 02:21:27;;;;;;;6.45;5.75;;;26.20;53.40;;;;;;5051151;28;20117;-58
2021/07/27 02:23:53;;;;;;;6.55;5.85;;;26.10;53.30;;;;;;5050840;28;20079;-61
2021/07/27 02:26:18;;;;;;;5.80;5.20;;;26.10;53.30;;;;;;5050537;28;20033;-60
2021/07/27 02:28:44;;;;;;;5.45;4.90;;;26.10;53.30;;;;;;5046258;28;20017;-61
2021/07/27 02:31:15;;;;;;;5.50;4.93;;;26.10;53.30;;;;;;5050929;28;20033;-59
2021/07/27 02:33:41;;;;;;;8.00;6.07;;;26.10;53.30;;;;;;5051665;28;20491;-60
2021/07/27 02:36:07;;;;;;;6.60;5.63;;;26.10;53.40;;;;;;5032812;28;20361;-61
2021/07/27 02:38:33;;;;;;;7.00;5.55;;;26.10;53.40;;;;;;5051290;28;20032;-62
2021/07/27 02:41:01;;;;;;;6.07;5.25;;;26.10;53.40;;;;;;5052014;28;20021;-62
2021/07/27 02:43:30;;;;;;;7.30;5.78;;;26.10;53.40;;;;;;5050626;28;20440;-62
2021/07/27 02:45:55;;;;;;;7.28;6.43;;;26.10;53.40;;;;;;5046750;28;20025;-59
2021/07/27 02:48:21;;;;;;;6.32;5.68;;;26.10;53.40;;;;;;5050079;28;20091;-60
2021/07/27 02:50:58;;;;;;;6.35;5.45;;;26.10;53.40;;;;;;5050609;28;20029;-62
2021/07/27 02:53:25;;;;;;;6.78;6.07;;;26.10;53.50;;;;;;5051205;28;20366;-60
2021/07/27 02:55:50;;;;;;;7.05;6.32;;;26.10;53.50;;;;;;5049113;28;20452;-60
2021/07/27 02:58:16;;;;;;;6.60;5.93;;;26.10;53.40;;;;;;5048926;28;20060;-60
2021/07/27 03:00:42;;;;;;;7.50;6.32;;;26.10;53.40;;;;;;5049686;28;20112;-60
2021/07/27 03:03:07;;;;;;;7.50;6.47;;;26.10;53.50;;;;;;5050572;28;20337;-59
2021/07/27 03:05:33;;;;;;;6.70;6.07;;;26.10;53.40;;;;;;5048837;28;20416;-60
2021/07/27 03:08:09;;;;;;;7.15;6.45;;;26.10;53.40;;;;;;5050668;28;20048;-61
2021/07/27 03:10:35;;;;;;;7.47;6.18;;;26.10;53.40;;;;;;5050097;28;20465;-60
2021/07/27 03:13:00;;;;;;;8.13;6.88;;;26.10;53.40;;;;;;5047483;28;20032;-61
2021/07/27 03:15:29;;;;;;;7.10;6.40;;;26.10;53.40;;;;;;5045639;28;20456;-59
2021/07/27 03:18:00;;;;;;;7.35;6.45;;;26.10;53.40;;;;;;5049205;28;20393;-61
2021/07/27 03:20:29;;;;;;;7.55;6.75;;;26.10;53.40;;;;;;5050759;28;20052;-59
2021/07/27 03:22:56;;;;;;;6.93;6.22;;;26.10;53.40;;;;;;5050130;28;20029;-62
2021/07/27 03:25:22;;;;;;;7.38;6.32;;;26.00;53.40;;;;;;5043740;28;20108;-60
2021/07/27 03:27:50;;;;;;;7.13;6.43;;;26.10;53.40;;;;;;5049931;28;20414;-62
2021/07/27 03:30:20;;;;;;;6.95;6.25;;;26.00;53.40;;;;;;5053739;28;20033;-61
2021/07/27 03:32:47;;;;;;;7.18;6.25;;;26.00;53.40;;;;;;5055587;28;20098;-60
2021/07/27 03:35:16;;;;;;;7.07;6.38;;;26.00;53.40;;;;;;5049890;28;20108;-62
2021/07/27 03:37:42;;;;;;;7.05;6.15;;;26.00;53.40;;;;;;5051695;28;20021;-62
2021/07/27 03:40:09;;;;;;;7.28;6.22;;;26.00;53.40;;;;;;5049664;28;20025;-60
2021/07/27 03:42:35;;;;;;;7.22;6.53;;;26.00;53.40;;;;;;5054145;28;20036;-61
2021/07/27 03:45:01;;;;;;;7.63;6.82;;;26.00;53.40;;;;;;5054019;28;20021;-61
2021/07/27 03:47:27;;;;;;;7.22;6.43;;;26.00;53.40;;;;;;5054098;28;20432;-59
2021/07/27 03:49:56;;;;;;;7.63;6.53;;;26.00;53.40;;;;;;5053454;28;20404;-58
2021/07/27 03:52:22;;;;;;;7.68;6.30;;;26.00;53.40;;;;;;5050325;28;20024;-59
2021/07/27 03:54:49;;;;;;;6.90;6.20;;;26.00;53.40;;;;;;5054587;28;20051;-59
2021/07/27 03:57:16;;;;;;;6.72;6.03;;;26.00;53.40;;;;;;5035926;28;20040;-60
2021/07/27 03:59:41;;;;;;;6.70;6.00;;;26.00;53.40;;;;;;5050013;28;20091;-61
2021/07/27 04:02:08;;;;;;;6.65;6.03;;;26.00;53.40;;;;;;5047596;28;20021;-60
2021/07/27 04:04:37;;;;;;;6.60;5.90;;;25.90;53.40;;;;;;5031593;28;20100;-61
2021/07/27 04:07:03;;;;;;;6.95;6.28;;;26.00;53.40;;;;;;5051468;28;20056;-60
2021/07/27 04:09:29;;;;;;;7.28;5.50;;;26.00;53.40;;;;;;5051106;28;20052;-60
2021/07/27 04:11:55;;;;;;;6.43;5.32;;;26.00;53.40;;;;;;5047819;28;20028;-61
2021/07/27 04:14:21;;;;;;;6.65;5.95;;;25.90;53.40;;;;;;5054103;28;20132;-60
2021/07/27 04:16:47;;;;;;;6.45;5.05;;;26.00;53.40;;;;;;5053363;28;20025;-60
2021/07/27 04:19:13;;;;;;;6.18;5.22;;;26.00;53.40;;;;;;5053162;28;20044;-61
2021/07/27 04:21:42;;;;;;;6.00;5.40;;;25.90;53.40;;;;;;5052989;28;20044;-60
2021/07/27 04:24:08;;;;;;;5.68;5.18;;;25.90;53.40;;;;;;5050978;28;20029;-60
2021/07/27 04:26:34;;;;;;;6.05;5.45;;;25.90;53.40;;;;;;5052497;28;20025;-60
2021/07/27 04:29:00;;;;;;;5.32;4.82;;;25.90;53.40;;;;;;5054184;28;20040;-61
2021/07/27 04:31:25;;;;;;;5.40;4.90;;;25.90;53.40;;;;;;5053808;28;20025;-60
2021/07/27 04:33:51;;;;;;;5.38;4.82;;;25.90;53.40;;;;;;5054233;28;20437;-61
2021/07/27 04:36:17;;;;;;;5.30;4.45;;;25.90;53.40;;;;;;5053978;28;20021;-60
2021/07/27 04:38:43;;;;;;;5.35;4.82;;;25.90;53.40;;;;;;5053865;28;20021;-59
2021/07/27 04:41:12;;;;;;;5.22;4.72;;;25.90;53.40;;;;;;5034598;28;20502;-60
2021/07/27 04:43:39;;;;;;;5.28;4.22;;;25.90;53.40;;;;;;5053970;28;20029;-60
2021/07/27 04:46:06;;;;;;;5.13;4.63;;;25.90;53.30;;;;;;5054424;28;20029;-61
2021/07/27 04:48:32;;;;;;;4.97;4.47;;;25.90;53.30;;;;;;5053891;28;20021;-61
2021/07/27 04:50:59;;;;;;;4.72;4.22;;;25.90;53.30;;;;;;5052445;28;21168;-61
2021/07/27 04:53:25;;;;;;;5.15;4.65;;;25.90;53.30;;;;;;5053318;28;20045;-58
2021/07/27 04:55:58;;;;;;;4.65;4.25;;;25.90;53.30;;;;;;5051600;28;20110;-59
2021/07/27 04:58:24;;;;;;;4.93;4.45;;;25.90;53.20;;;;;;5046658;28;20402;-59
2021/07/27 05:00:50;;;;;;;4.90;4.40;;;25.90;53.20;;;;;;5053410;28;20025;-59
2021/07/27 05:03:15;;;;;;;4.63;4.22;;;25.90;53.10;;;;;;5052795;28;20033;-61
2021/07/27 05:05:41;;;;;;;4.78;4.28;;;25.90;53.10;;;;;;5052968;28;20094;-58
2021/07/27 05:08:07;;;;;;;4.47;4.07;;;25.90;53.70;;;;;;5053590;28;20024;-61
2021/07/27 05:10:33;;;;;;;4.38;3.92;;;25.90;53.10;;;;;;5052831;28;20114;-60
2021/07/27 05:12:59;;;;;;;4.50;4.10;;;25.90;53.10;;;;;;5035661;28;20029;-61
2021/07/27 05:15:25;;;;;;;4.22;3.80;;;25.90;53.00;;;;;;5051654;28;20033;-60
2021/07/27 05:17:52;;;;;;;5.63;4.22;;;25.90;53.00;;;;;;5053088;28;20020;-60
2021/07/27 05:20:18;;;;;;;4.32;3.53;;;25.90;53.00;;;;;;5053457;28;20486;-61
2021/07/27 05:22:43;;;;;;;5.22;3.70;;;25.90;53.00;;;;;;5052743;28;20036;-62
2021/07/27 05:25:11;;;;;;;4.70;4.20;;;25.90;52.90;;;;;;5052603;28;20054;-62
2021/07/27 05:27:37;;;;;;;4.38;3.97;;;25.90;52.90;;;;;;5051291;28;20024;-59
2021/07/27 05:30:04;;;;;;;3.70;3.38;;;25.90;52.90;;;;;;5052703;28;20028;-60
2021/07/27 05:32:30;;;;;;;4.15;3.75;;;26.00;53.00;;;;;;5034486;28;20345;-60
2021/07/27 05:34:56;;;;;;;4.03;3.70;;;25.90;52.80;;;;;;5053082;28;20044;-61
2021/07/27 05:37:22;;;;;;;4.38;3.97;;;25.90;52.80;;;;;;5052826;28;20539;-60
2021/07/27 05:39:48;;;;;;;3.85;3.53;;;25.90;52.80;;;;;;5052803;28;20167;-61
2021/07/27 05:42:14;;;;;;;4.00;3.60;;;25.90;52.80;;;;;;5052610;28;20439;-57
2021/07/27 05:44:40;;;;;;;3.90;3.50;;;25.90;52.70;;;;;;5052138;28;20134;-61
2021/07/27 05:47:06;;;;;;;4.28;3.88;;;25.90;52.70;;;;;;5047414;28;20384;-58
2021/07/27 05:49:34;;;;;;;3.80;3.50;;;25.90;52.70;;;;;;5052929;28;20017;-61
2021/07/27 05:52:00;;;;;;;3.58;3.28;;;25.90;52.60;;;;;;5052415;28;20029;-60
2021/07/27 05:54:26;;;;;;;4.05;3.40;;;25.90;52.50;;;;;;5052427;28;20449;-60
2021/07/27 05:56:52;;;;;;;4.90;4.15;;;25.90;52.50;;;;;;5052761;28;20040;-61
2021/07/27 05:59:19;;;;;;;3.60;3.30;;;25.90;52.50;;;;;;5051987;28;20032;-59
2021/07/27 06:01:45;;;;;;;4.00;3.30;;;26.00;52.50;;;;;;5050083;28;20025;-59
2021/07/27 06:04:12;;;;;;;3.05;2.75;;;26.00;52.40;;;;;;5052135;28;20104;-59
2021/07/27 06:06:38;;;;;;;3.53;3.17;;;25.90;52.40;;;;;;5034086;28;20039;-59
2021/07/27 06:09:10;;;;;;;3.33;2.92;;;26.00;52.40;;;;;;5050958;28;20029;-58
2021/07/27 06:11:37;;;;;;;3.88;3.17;;;25.90;52.30;;;;;;5051946;28;20440;-60
2021/07/27 06:14:12;;;;;;;4.00;3.60;;;25.90;52.30;;;;;;5050322;28;20120;-60
2021/07/27 06:16:38;;;;;;;3.45;2.85;;;26.00;52.40;;;;;;5051577;28;20044;-60
2021/07/27 06:19:06;;;;;;;5.70;3.33;;;25.90;52.30;;;;;;5052010;28;20025;-59
2021/07/27 06:21:32;;;;;;;11.57;3.97;;;25.90;52.30;;;;;;5052745;28;20033;-60
2021/07/27 06:23:58;;;;;;;4.95;3.72;;;26.00;52.40;;;;;;5052578;28;20110;-55
2021/07/27 06:26:23;;;;;;;4.03;3.63;;;25.90;52.40;;;;;;5051705;28;20032;-60
2021/07/27 06:28:49;;;;;;;5.20;3.58;;;26.00;52.50;;;;;;5052165;28;20040;-58
2021/07/27 06:31:15;;;;;;;4.90;4.32;;;26.00;52.40;;;;;;5046070;28;20399;-63
2021/07/27 06:33:42;;;;;;;4.20;3.50;;;26.00;52.40;;;;;;5043896;28;20372;-56
2021/07/27 06:36:09;;;;;;;12.55;3.53;;;26.10;52.50;;;;;;5051977;28;20047;-58
2021/07/27 06:38:35;;;;;;;4.38;3.80;;;26.10;52.40;;;;;;5034292;28;20501;-63
2021/07/27 06:41:04;;;;;;;4.90;3.90;;;26.10;52.30;;;;;;5050799;28;20326;-62
2021/07/27 06:43:30;;;;;;;5.88;3.65;;;26.10;52.20;;;;;;5049789;28;20428;-61
2021/07/27 06:45:56;;;;;;;3.95;3.55;;;26.20;52.20;;;;;;5052335;28;20021;-62
2021/07/27 06:48:22;;;;;;;4.30;3.67;;;26.20;52.10;;;;;;5050420;28;20083;-60
2021/07/27 06:50:49;;;;;;;5.20;3.72;;;26.20;52.10;;;;;;5051351;28;20032;-61
2021/07/27 06:53:14;;;;;;;4.00;3.63;;;26.20;52.00;;;;;;5050075;28;20045;-63
2021/07/27 06:55:40;;;;;;;4.45;3.53;;;26.30;52.00;;;;;;5033033;28;20468;-60
2021/07/27 06:58:06;;;;;;;3.92;3.40;;;26.20;51.80;;;;;;5051060;28;20511;-61
2021/07/27 07:00:32;;;;;;;4.53;3.88;;;26.30;51.90;;;;;;5034091;28;20357;-61
2021/07/27 07:02:57;;;;;;;4.95;3.97;;;26.30;51.80;;;;;;5050303;28;20048;-61
2021/07/27 07:05:23;;;;;;;5.30;3.90;;;26.30;51.80;;;;;;5054351;28;20395;-61
2021/07/27 07:07:49;;;;;;;4.43;3.47;;;26.30;51.70;;;;;;5036327;28;20068;-58
2021/07/27 07:10:15;;;;;;;4.32;3.90;;;26.30;51.60;;;;;;5053701;28;20037;-61
2021/07/27 07:12:40;;;;;;;4.40;3.97;;;26.30;51.60;;;;;;5036106;28;20033;-60
2021/07/27 07:15:07;;;;;;;4.93;3.97;;;26.30;51.60;;;;;;5051472;28;20028;-60
2021/07/27 07:17:32;;;;;;;4.28;3.88;;;26.30;51.50;;;;;;5052923;28;20457;-61
2021/07/27 07:19:58;;;;;;;4.88;4.43;;;26.30;51.50;;;;;;5051308;28;20043;-60
2021/07/27 07:22:24;;;;;;;4.30;3.90;;;26.30;51.50;;;;;;5053141;28;20103;-60
2021/07/27 07:24:51;;;;;;;4.50;4.00;;;26.30;51.50;;;;;;5051497;28;20086;-57
2021/07/27 07:27:18;;;;;;;4.22;3.83;;;26.40;51.50;;;;;;5035682;28;20037;-61
2021/07/27 07:29:44;;;;;;;4.40;4.00;;;26.40;51.40;;;;;;5052934;28;20432;-61
2021/07/27 07:32:10;;;;;;;4.65;3.63;;;26.40;51.40;;;;;;5053615;28;20496;-62
2021/07/27 07:34:36;;;;;;;4.43;3.67;;;26.40;51.40;;;;;;5052934;28;20083;-59
2021/07/27 07:37:05;;;;;;;5.40;4.15;;;26.40;51.30;;;;;;5051424;28;20176;-58
2021/07/27 07:39:31;;;;;;;4.22;3.83;;;26.40;51.70;;;;;;5052031;28;20029;-60
2021/07/27 07:41:58;;;;;;;4.10;3.70;;;26.40;51.30;;;;;;5032016;28;20025;-60
2021/07/27 07:44:25;;;;;;;4.00;3.53;;;26.40;51.30;;;;;;5050803;28;20079;-60
2021/07/27 07:46:51;;;;;;;5.22;4.07;;;26.40;51.30;;;;;;5052807;28;20036;-59
2021/07/27 07:49:17;;;;;;;4.43;3.90;;;26.40;51.30;;;;;;5052265;28;20348;-60
2021/07/27 07:51:47;;;;;;;4.13;3.72;;;26.40;51.30;;;;;;5031171;28;20029;-60
2021/07/27 07:54:14;;;;;;;4.18;3.78;;;26.50;51.30;;;;;;5050293;28;20106;-60
2021/07/27 07:56:46;;;;;;;4.22;3.83;;;26.50;51.30;;;;;;5049852;28;20021;-60
2021/07/27 07:59:12;;;;;;;4.47;4.00;;;26.50;51.30;;;;;;5036168;28;20064;-60
2021/07/27 08:01:38;;;;;;;4.43;3.75;;;26.50;51.30;;;;;;5035143;28;20436;-59
2021/07/27 08:04:05;;;;;;;4.28;3.88;;;26.50;51.30;;;;;;5052161;28;20028;-60
2021/07/27 08:06:31;;;;;;;4.28;3.88;;;26.40;51.30;;;;;;5053898;28;20119;-60
2021/07/27 08:08:57;;;;;;;4.40;4.00;;;26.50;51.30;;;;;;5053471;28;20036;-59
2021/07/27 08:11:24;;;;;;;3.65;3.35;;;26.50;51.30;;;;;;5035999;28;20033;-61
2021/07/27 08:13:53;;;;;;;4.18;3.15;;;26.50;51.30;;;;;;5053800;28;20037;-60
2021/07/27 08:16:18;;;;;;;3.72;3.35;;;26.50;51.30;;;;;;5052828;28;20025;-60
2021/07/27 08:18:44;;;;;;;3.83;3.50;;;26.50;51.30;;;;;;5054282;28;20040;-59
2021/07/27 08:21:10;;;;;;;3.90;3.50;;;26.50;51.30;;;;;;5053462;28;20303;-61
2021/07/27 08:23:40;;;;;;;3.78;3.47;;;26.50;51.30;;;;;;5035907;28;20028;-59
2021/07/27 08:26:06;;;;;;;4.07;3.67;;;26.50;51.30;;;;;;5018742;28;20026;-59
2021/07/27 08:28:32;;;;;;;3.85;3.45;;;26.50;51.20;;;;;;5053810;28;20372;-58
2021/07/27 08:30:57;;;;;;;4.15;3.75;;;26.50;51.30;;;;;;5053643;28;20456;-60
2021/07/27 08:33:23;;;;;;;4.10;3.70;;;26.50;51.20;;;;;;5051662;28;20099;-60
2021/07/27 08:35:49;;;;;;;3.63;3.33;;;26.50;51.30;;;;;;5050928;28;20115;-60
2021/07/27 08:38:18;;;;;;;3.78;3.47;;;26.50;51.30;;;;;;5050099;28;20036;-63
2021/07/27 08:40:47;;;;;;;3.88;3.55;;;26.50;51.30;;;;;;5055025;28;20087;-60
2021/07/27 08:43:19;;;;;;;4.15;3.75;;;26.50;51.30;;;;;;5036087;28;20029;-66
2021/07/27 08:45:45;;;;;;;3.95;3.40;;;26.50;51.30;;;;;;5060783;28;20106;-62
2021/07/27 08:48:15;;;;;;;3.90;3.50;;;26.60;51.40;;;;;;5063598;28;20029;-62
2021/07/27 08:50:43;;;;;;;4.88;3.88;;;26.60;51.40;;;;;;5053231;28;20025;-63
2021/07/27 08:53:09;;;;;;;3.92;3.55;;;26.60;51.40;;;;;;5053283;28;20037;-62
2021/07/27 08:55:36;;;;;;;3.88;3.50;;;26.60;51.40;;;;;;5056401;28;20459;-64
2021/07/27 08:58:03;;;;;;;4.78;4.13;;;26.60;51.40;;;;;;5069506;28;20050;-62
2021/07/27 09:00:32;;;;;;;3.90;3.60;;;26.70;51.40;;;;;;5074300;28;20074;-62
2021/07/27 09:03:13;;;;;;;5.15;4.03;;;26.70;51.40;;;;;;5051382;28;20355;-60
2021/07/27 09:05:40;;;;;;;3.90;3.50;;;26.70;51.40;;;;;;5052658;28;20070;-60
2021/07/27 09:08:08;;;;;;;5.47;3.65;;;26.80;51.50;;;;;;5051978;28;20021;-61
2021/07/27 09:10:40;;;;;;;4.95;3.83;;;26.80;51.50;;;;;;5052115;28;20102;-61
2021/07/27 09:13:09;;;;;;;3.78;3.47;;;26.80;51.50;;;;;;5035283;28;20120;-60
2021/07/27 09:15:36;;;;;;;3.70;3.38;;;26.80;51.50;;;;;;5052822;28;20044;-60
2021/07/27 09:18:11;;;;;;;3.72;3.42;;;26.80;51.50;;;;;;5049504;28;20475;-60
2021/07/27 09:20:39;;;;;;;5.30;3.78;;;26.80;51.50;;;;;;5046299;28;20071;-61
2021/07/27 09:23:14;;;;;;;5.28;3.75;;;26.80;51.50;;;;;;5051582;28;20044;-60
2021/07/27 09:25:46;;;;;;;3.80;3.50;;;26.80;51.40;;;;;;5050981;28;20025;-59
2021/07/27 09:28:13;;;;;;;3.65;3.35;;;26.80;51.40;;;;;;5051443;28;20047;-60
2021/07/27 09:30:42;;;;;;;5.15;3.42;;;26.80;51.40;;;;;;5050562;28;20119;-62
2021/07/27 09:33:11;;;;;;;4.07;3.67;;;26.90;51.50;;;;;;5049913;28;20050;-59
2021/07/27 09:35:39;;;;;;;5.28;3.45;;;26.90;51.40;;;;;;5051840;28;20029;-59
2021/07/27 09:38:17;;;;;;;4.40;3.80;;;26.90;51.40;;;;;;5051033;28;20025;-63
2021/07/27 09:40:55;;;;;;;4.18;3.60;;;26.90;51.30;;;;;;5046273;28;20036;-61
2021/07/27 09:43:24;;;;;;;4.03;3.47;;;26.90;51.20;;;;;;5043949;28;20052;-59
2021/07/27 09:45:52;;;;;;;3.97;3.45;;;26.90;51.20;;;;;;5043222;28;20033;-61
2021/07/27 09:48:20;;;;;;;4.25;3.67;;;26.90;51.20;;;;;;5025124;28;20036;-61
2021/07/27 09:50:48;;;;;;;3.70;3.40;;;27.00;51.10;;;;;;5043191;28;20061;-61
2021/07/27 09:53:15;;;;;;;3.85;3.38;;;27.00;51.00;;;;;;5025413;28;20350;-60
2021/07/27 09:55:41;;;;;;;3.30;3.00;;;27.00;51.00;;;;;;5043673;28;20445;-61
2021/07/27 09:58:07;;;;;;;3.60;3.30;;;27.00;50.90;;;;;;5045610;28;20044;-56
2021/07/27 10:00:41;;;;;;;4.13;3.60;;;27.00;50.80;;;;;;5046068;28;20029;-59
2021/07/27 10:03:11;;;;;;;;;;;27.00;50.70;;;;;;5045830;28;20516;-59
2021/07/27 10:05:37;;;;;;;3.60;3.30;;;27.00;50.70;;;;;;5046551;28;20312;-59
2021/07/27 10:08:02;;;;;;;3.63;3.28;;;27.00;51.30;;;;;;5051097;28;20029;-61
2021/07/27 10:10:36;;;;;;;4.93;3.60;;;27.00;50.60;;;;;;5045950;28;20057;-61
2021/07/27 10:13:06;;;;;;;;;;;27.00;50.40;;;;;;5048407;28;20071;-55
2021/07/27 10:15:44;;;;;;;3.35;2.95;;;27.00;50.50;;;;;;5050088;28;19952;-61
2021/07/27 10:18:12;;;;;;;2.75;2.55;;;27.10;50.50;;;;;;5043978;28;20117;-61
2021/07/27 10:20:38;;;;;;;3.97;3.30;;;27.10;50.40;;;;;;5045822;28;20021;-60
2021/07/27 10:23:18;;;;;;;3.15;2.85;;;27.10;50.30;;;;;;5044843;28;20083;-57
2021/07/27 10:25:58;;;;;;;3.25;2.95;;;27.10;50.10;;;;;;5047514;28;20036;-60
2021/07/27 10:28:25;;;;;;;3.50;3.20;;;27.10;50.00;;;;;;5045288;28;20025;-59
2021/07/27 10:31:07;;;;;;;3.10;2.80;;;27.10;50.00;;;;;;5044432;28;20033;-61
2021/07/27 10:33:33;;;;;;;3.83;2.90;;;27.10;49.80;;;;;;5047868;28;20044;-61
2021/07/27 10:35:59;;;;;;;3.50;3.20;;;27.10;49.80;;;;;;5045803;28;20036;-61
2021/07/27 10:38:39;;;;;;;3.50;3.20;;;27.10;49.80;;;;;;5045696;28;20053;-60
2021/07/27 10:41:17;;;;;;;5.13;3.25;;;27.10;49.60;;;;;;5046759;28;20024;-58
2021/07/27 10:43:44;;;;;;;4.65;3.03;;;27.10;49.60;;;;;;5041374;28;20037;-62
2021/07/27 10:46:11;;;;;;;4.45;3.85;;;27.10;49.60;;;;;;5044957;28;20029;-61
2021/07/27 10:48:39;;;;;;;4.82;3.28;;;27.10;49.60;;;;;;5045924;28;20040;-62
2021/07/27 10:51:05;;;;;;;3.50;3.15;;;27.20;49.70;;;;;;5042619;28;20021;-61
2021/07/27 10:53:32;;;;;;;3.70;3.13;;;27.20;49.60;;;;;;5043762;28;20079;-63
2021/07/27 10:56:09;;;;;;;3.40;3.10;;;27.20;49.60;;;;;;5047038;28;20464;-62
2021/07/27 10:58:35;;;;;;;3.63;3.33;;;27.20;49.50;;;;;;5043799;28;20017;-61
2021/07/27 11:01:10;;;;;;;3.60;3.30;;;27.20;49.60;;;;;;5049220;28;20024;-63
2021/07/27 11:03:41;;;;;;;4.20;3.25;;;27.20;49.60;;;;;;5045961;28;20462;-63
2021/07/27 11:06:07;;;;;;;4.07;3.33;;;27.20;49.60;;;;;;5040835;28;20051;-62
2021/07/27 11:08:33;;;;;;;3.60;3.15;;;27.20;49.60;;;;;;5041881;28;20029;-62
2021/07/27 11:11:09;;;;;;;3.60;3.28;;;27.10;49.50;;;;;;5040747;28;20032;-61
2021/07/27 11:13:39;;;;;;;3.78;3.22;;;27.20;49.60;;;;;;5022194;28;20049;-63
2021/07/27 11:16:05;;;;;;;3.97;3.33;;;27.20;49.60;;;;;;5041853;28;20025;-59
2021/07/27 11:18:32;;;;;;;3.17;2.90;;;27.20;49.60;;;;;;5046980;28;20033;-61
2021/07/27 11:20:59;;;;;;;4.68;3.40;;;27.20;50.20;;;;;;5052807;28;20037;-63
2021/07/27 11:23:30;;;;;;;4.57;3.45;;;27.20;49.60;;;;;;5051349;28;20465;-62
2021/07/27 11:25:57;;;;;;;3.33;3.03;;;27.20;49.60;;;;;;5032150;28;20060;-62
2021/07/27 11:28:33;;;;;;;3.50;3.17;;;27.20;49.60;;;;;;5049623;28;20096;-60
2021/07/27 11:30:59;;;;;;;3.92;2.97;;;27.20;49.50;;;;;;5052582;28;20116;-63
2021/07/27 11:33:25;;;;;;;3.50;3.20;;;27.20;49.50;;;;;;5052231;28;20056;-62
2021/07/27 11:35:53;;;;;;;3.60;3.30;;;27.20;49.50;;;;;;5052791;28;20116;-62
2021/07/27 11:38:27;;;;;;;3.55;3.25;;;27.20;49.50;;;;;;5052609;28;20513;-61
2021/07/27 11:41:09;;;;;;;3.78;3.38;;;27.20;49.50;;;;;;5052347;28;20119;-61
2021/07/27 11:43:37;;;;;;;3.60;3.30;;;27.20;49.40;;;;;;5036413;28;20044;-62
2021/07/27 11:46:16;;;;;;;3.38;3.08;;;27.20;49.50;;;;;;5033602;28;20064;-63
2021/07/27 11:48:55;;;;;;;3.28;2.97;;;27.20;49.40;;;;;;5042623;28;20033;-62
2021/07/27 11:51:30;;;;;;;3.45;3.00;;;27.30;49.40;;;;;;5056470;28;20076;-59
2021/07/27 11:53:57;;;;;;;3.20;2.60;;;27.20;49.30;;;;;;5056533;28;20035;-60
2021/07/27 11:56:23;;;;;;;2.80;2.60;;;27.20;49.30;;;;;;5056771;28;20045;-61
2021/07/27 11:59:09;;;;;;;2.55;2.10;;;27.20;49.30;;;;;;5054783;28;20036;-61
2021/07/27 12:01:40;;;;;;;2.15;1.95;;;27.20;49.20;;;;;;5036267;28;20516;-61
2021/07/27 12:04:06;;;;;;;2.35;1.70;;;27.20;49.20;;;;;;5050000;28;20059;-62
2021/07/27 12:06:32;;;;;;;2.63;2.20;;;27.10;49.10;;;;;;5055481;28;20021;-62
2021/07/27 12:09:01;;;;;;;2.33;2.00;;;27.10;49.10;;;;;;5053715;28;20454;-62
2021/07/27 12:11:27;;;;;;;2.60;1.88;;;27.10;49.00;;;;;;5037609;28;20359;-62
2021/07/27 12:13:53;;;;;;;1.75;1.63;;;27.10;49.00;;;;;;5055276;28;20124;-62
2021/07/27 12:16:19;;;;;;;1.98;1.58;;;27.10;49.00;;;;;;5053440;28;20364;-62
2021/07/27 12:18:44;;;;;;;1.90;1.70;;;27.10;49.00;;;;;;5055587;28;20020;-61
2021/07/27 12:21:10;;;;;;;1.95;1.75;;;27.10;49.00;;;;;;5053912;28;20386;-59
2021/07/27 12:23:36;;;;;;;1.90;1.80;;;27.10;49.10;;;;;;5053232;28;20033;-60
2021/07/27 12:26:05;;;;;;;2.10;1.60;;;27.00;49.00;;;;;;5048633;28;20029;-62
2021/07/27 12:28:33;;;;;;;1.88;1.70;;;27.00;49.10;;;;;;5047877;28;20021;-60
2021/07/27 12:31:02;;;;;;;2.60;1.98;;;27.00;49.10;;;;;;5051650;28;20024;-57
2021/07/27 12:33:31;;;;;;;1.70;1.40;;;27.00;49.30;;;;;;5047191;28;20045;-62
2021/07/27 12:35:59;;;;;;;1.80;1.45;;;27.00;49.50;;;;;;5053715;28;20039;-62
2021/07/27 12:38:25;;;;;;;2.30;1.60;;;27.10;49.60;;;;;;5036990;28;20123;-63
2021/07/27 12:40:54;;;;;;;2.00;1.67;;;27.10;49.70;;;;;;5037504;28;20037;-64
2021/07/27 12:43:22;;;;;;;2.67;1.85;;;27.10;50.40;;;;;;5036980;28;20037;-63
2021/07/27 12:45:49;;;;;;;2.40;2.20;;;27.10;49.80;;;;;;5053637;28;20051;-61
2021/07/27 12:48:15;;;;;;;2.03;1.77;;;27.10;50.00;;;;;;5048444;28;20120;-63
2021/07/27 12:50:41;;;;;;;3.42;2.10;;;27.10;50.20;;;;;;5053483;28;20036;-61
2021/07/27 12:53:07;;;;;;;3.50;1.92;;;27.20;50.40;;;;;;5051555;28;20024;-62
2021/07/27 12:55:33;;;;;;;2.25;2.05;;;27.20;50.40;;;;;;5047302;28;20036;-62
2021/07/27 12:58:03;;;;;;;4.43;2.20;;;27.20;50.50;;;;;;5051631;28;20040;-62
2021/07/27 13:00:30;;;;;;;2.38;1.90;;;27.30;50.50;;;;;;5050819;28;20159;-63
2021/07/27 13:02:55;;;;;;;2.55;2.03;;;27.30;50.50;;;;;;5034970;28;20021;-62
2021/07/27 13:05:22;;;;;;;2.15;1.63;;;27.30;50.50;;;;;;5048039;28;20066;-61
2021/07/27 13:07:48;;;;;;;4.10;1.77;;;27.30;50.50;;;;;;5046842;28;20155;-62
2021/07/27 13:10:14;;;;;;;2.95;2.10;;;27.40;50.60;;;;;;5050638;28;20081;-62
2021/07/27 13:12:40;;;;;;;2.65;2.17;;;27.40;50.60;;;;;;5051201;28;20452;-60
2021/07/27 13:15:06;;;;;;;1.85;1.70;;;27.40;50.60;;;;;;5049606;28;20064;-63